sensor_id;sensor_type;location;lat;lon;timestamp;P1;durP1;ratioP1;P2;durP2;ratioP2
75520;SDS011;64102;48.628;9.002;2023-02-12T00:01:47;12.83;;;3.00;;
75520;SDS011;64102;48.628;9.002;2023-02-12T00:04:12;12.80;;;3.35;;
75520;SDS011;64102;48.628;9.002;2023-02-12T00:06:38;16.45;;;3.33;;
75520;SDS011;64102;48.628;9.002;2023-02-12T00:09:04;17.20;;;3.60;;
75520;SDS011;64102;48.628;9.002;2023-02-12T00:11:30;17.65;;;3.70;;
75520;SDS011;64102;48.628;9.002;2023-02-12T00:13:55;16.20;;;3.88;;
75520;SDS011;64102;48.628;9.002;2023-02-12T00:16:23;14.52;;;3.13;;
75520;SDS011;64102;48.628;9.002;2023-02-12T00:18:51;12.60;;;2.83;;
75520;SDS011;64102;48.628;9.002;2023-02-12T00:21:18;11.25;;;2.60;;
75520;SDS011;64102;48.628;9.002;2023-02-12T00:23:43;17.27;;;4.65;;
75520;SDS011;64102;48.628;9.002;2023-02-12T00:26:10;15.93;;;3.83;;
75520;SDS011;64102;48.628;9.002;2023-02-12T00:28:39;16.60;;;3.97;;
75520;SDS011;64102;48.628;9.002;2023-02-12T00:31:06;13.00;;;2.87;;
75520;SDS011;64102;48.628;9.002;2023-02-12T00:33:35;17.58;;;3.22;;
75520;SDS011;64102;48.628;9.002;2023-02-12T00:36:01;16.48;;;3.63;;
75520;SDS011;64102;48.628;9.002;2023-02-12T00:38:26;15.95;;;3.85;;
75520;SDS011;64102;48.628;9.002;2023-02-12T00:40:52;13.23;;;2.92;;
75520;SDS011;64102;48.628;9.002;2023-02-12T00:43:17;13.93;;;3.17;;
75520;SDS011;64102;48.628;9.002;2023-02-12T00:45:46;19.43;;;5.07;;
75520;SDS011;64102;48.628;9.002;2023-02-12T00:48:11;20.05;;;5.07;;
75520;SDS011;64102;48.628;9.002;2023-02-12T00:50:38;16.33;;;3.90;;
75520;SDS011;64102;48.628;9.002;2023-02-12T00:53:05;14.40;;;4.15;;
75520;SDS011;64102;48.628;9.002;2023-02-12T00:55:31;17.00;;;3.50;;
75520;SDS011;64102;48.628;9.002;2023-02-12T00:57:57;16.52;;;4.20;;
75520;SDS011;64102;48.628;9.002;2023-02-12T01:00:23;16.48;;;2.92;;
75520;SDS011;64102;48.628;9.002;2023-02-12T01:02:48;15.27;;;3.92;;
75520;SDS011;64102;48.628;9.002;2023-02-12T01:05:13;12.47;;;3.27;;
75520;SDS011;64102;48.628;9.002;2023-02-12T01:07:39;13.98;;;3.50;;
75520;SDS011;64102;48.628;9.002;2023-02-12T01:10:05;15.90;;;2.88;;
75520;SDS011;64102;48.628;9.002;2023-02-12T01:12:31;15.73;;;4.45;;
75520;SDS011;64102;48.628;9.002;2023-02-12T01:14:57;14.60;;;3.88;;
75520;SDS011;64102;48.628;9.002;2023-02-12T01:17:22;12.30;;;2.43;;
75520;SDS011;64102;48.628;9.002;2023-02-12T01:19:48;15.35;;;3.55;;
75520;SDS011;64102;48.628;9.002;2023-02-12T01:22:13;16.47;;;3.83;;
75520;SDS011;64102;48.628;9.002;2023-02-12T01:24:38;11.87;;;3.00;;
75520;SDS011;64102;48.628;9.002;2023-02-12T01:27:03;12.80;;;4.00;;
75520;SDS011;64102;48.628;9.002;2023-02-12T01:29:29;19.67;;;4.05;;
75520;SDS011;64102;48.628;9.002;2023-02-12T01:31:54;13.17;;;3.17;;
75520;SDS011;64102;48.628;9.002;2023-02-12T01:34:20;14.17;;;2.97;;
75520;SDS011;64102;48.628;9.002;2023-02-12T01:36:45;11.53;;;2.90;;
75520;SDS011;64102;48.628;9.002;2023-02-12T01:39:10;13.20;;;3.20;;
75520;SDS011;64102;48.628;9.002;2023-02-12T01:41:39;16.10;;;3.78;;
75520;SDS011;64102;48.628;9.002;2023-02-12T01:44:07;13.55;;;2.45;;
75520;SDS011;64102;48.628;9.002;2023-02-12T01:46:33;22.35;;;3.45;;
75520;SDS011;64102;48.628;9.002;2023-02-12T01:48:58;13.50;;;2.97;;
75520;SDS011;64102;48.628;9.002;2023-02-12T01:51:24;18.73;;;4.75;;
75520;SDS011;64102;48.628;9.002;2023-02-12T01:53:53;12.88;;;3.40;;
75520;SDS011;64102;48.628;9.002;2023-02-12T01:58:49;12.32;;;2.35;;
75520;SDS011;64102;48.628;9.002;2023-02-12T02:01:20;16.73;;;3.60;;
75520;SDS011;64102;48.628;9.002;2023-02-12T02:03:48;14.43;;;2.92;;
75520;SDS011;64102;48.628;9.002;2023-02-12T02:06:21;11.63;;;2.33;;
75520;SDS011;64102;48.628;9.002;2023-02-12T02:08:54;13.18;;;2.85;;
75520;SDS011;64102;48.628;9.002;2023-02-12T02:11:21;20.05;;;4.35;;
75520;SDS011;64102;48.628;9.002;2023-02-12T02:14:05;14.35;;;3.45;;
75520;SDS011;64102;48.628;9.002;2023-02-12T02:16:52;16.55;;;4.18;;
75520;SDS011;64102;48.628;9.002;2023-02-12T02:19:49;10.07;;;2.63;;
75520;SDS011;64102;48.628;9.002;2023-02-12T02:22:37;13.70;;;2.97;;
75520;SDS011;64102;48.628;9.002;2023-02-12T02:28:11;15.20;;;3.80;;
75520;SDS011;64102;48.628;9.002;2023-02-12T02:41:19;14.73;;;3.27;;
75520;SDS011;64102;48.628;9.002;2023-02-12T02:46:20;12.85;;;3.25;;
75520;SDS011;64102;48.628;9.002;2023-02-12T02:48:49;15.32;;;3.13;;
75520;SDS011;64102;48.628;9.002;2023-02-12T02:51:21;18.40;;;3.60;;
75520;SDS011;64102;48.628;9.002;2023-02-12T02:53:53;17.08;;;3.92;;
75520;SDS011;64102;48.628;9.002;2023-02-12T02:56:22;19.02;;;4.65;;
75520;SDS011;64102;48.628;9.002;2023-02-12T02:59:08;15.95;;;4.50;;
75520;SDS011;64102;48.628;9.002;2023-02-12T03:01:43;18.73;;;4.45;;
75520;SDS011;64102;48.628;9.002;2023-02-12T03:04:15;14.00;;;3.50;;
75520;SDS011;64102;48.628;9.002;2023-02-12T03:06:46;13.85;;;4.30;;
75520;SDS011;64102;48.628;9.002;2023-02-12T03:09:19;17.75;;;3.70;;
75520;SDS011;64102;48.628;9.002;2023-02-12T03:11:48;17.15;;;3.22;;
75520;SDS011;64102;48.628;9.002;2023-02-12T03:14:19;16.80;;;3.83;;
75520;SDS011;64102;48.628;9.002;2023-02-12T03:19:34;15.60;;;2.78;;
75520;SDS011;64102;48.628;9.002;2023-02-12T03:22:11;14.63;;;3.28;;
75520;SDS011;64102;48.628;9.002;2023-02-12T03:27:32;16.13;;;3.28;;
75520;SDS011;64102;48.628;9.002;2023-02-12T03:30:02;16.88;;;3.42;;
75520;SDS011;64102;48.628;9.002;2023-02-12T03:32:39;17.27;;;4.50;;
75520;SDS011;64102;48.628;9.002;2023-02-12T03:35:19;12.73;;;3.28;;
75520;SDS011;64102;48.628;9.002;2023-02-12T03:37:57;11.82;;;2.83;;
75520;SDS011;64102;48.628;9.002;2023-02-12T03:40:32;16.17;;;3.33;;
75520;SDS011;64102;48.628;9.002;2023-02-12T03:43:16;15.98;;;3.67;;
75520;SDS011;64102;48.628;9.002;2023-02-12T03:46:01;12.48;;;2.50;;
75520;SDS011;64102;48.628;9.002;2023-02-12T03:48:35;19.33;;;3.58;;
75520;SDS011;64102;48.628;9.002;2023-02-12T03:51:22;16.23;;;4.32;;
75520;SDS011;64102;48.628;9.002;2023-02-12T03:53:56;17.38;;;3.53;;
75520;SDS011;64102;48.628;9.002;2023-02-12T03:56:27;15.73;;;4.00;;
75520;SDS011;64102;48.628;9.002;2023-02-12T03:58:58;14.23;;;3.88;;
75520;SDS011;64102;48.628;9.002;2023-02-12T04:01:23;15.57;;;3.78;;
75520;SDS011;64102;48.628;9.002;2023-02-12T04:03:48;15.27;;;3.77;;
75520;SDS011;64102;48.628;9.002;2023-02-12T04:06:22;18.90;;;3.58;;
75520;SDS011;64102;48.628;9.002;2023-02-12T04:08:53;18.27;;;4.35;;
75520;SDS011;64102;48.628;9.002;2023-02-12T04:16:48;15.93;;;4.00;;
75520;SDS011;64102;48.628;9.002;2023-02-12T04:24:56;15.23;;;2.75;;
75520;SDS011;64102;48.628;9.002;2023-02-12T04:27:37;18.98;;;3.67;;
75520;SDS011;64102;48.628;9.002;2023-02-12T04:30:27;15.13;;;2.97;;
75520;SDS011;64102;48.628;9.002;2023-02-12T04:32:59;13.73;;;2.80;;
75520;SDS011;64102;48.628;9.002;2023-02-12T04:40:38;15.02;;;3.55;;
75520;SDS011;64102;48.628;9.002;2023-02-12T04:43:05;15.27;;;3.47;;
75520;SDS011;64102;48.628;9.002;2023-02-12T04:45:31;17.25;;;3.42;;
75520;SDS011;64102;48.628;9.002;2023-02-12T04:47:58;14.07;;;3.10;;
75520;SDS011;64102;48.628;9.002;2023-02-12T04:50:24;15.50;;;4.00;;
75520;SDS011;64102;48.628;9.002;2023-02-12T04:52:51;15.73;;;2.90;;
75520;SDS011;64102;48.628;9.002;2023-02-12T04:55:16;11.68;;;3.45;;
75520;SDS011;64102;48.628;9.002;2023-02-12T04:57:42;16.52;;;3.22;;
75520;SDS011;64102;48.628;9.002;2023-02-12T05:00:08;16.38;;;3.65;;
75520;SDS011;64102;48.628;9.002;2023-02-12T05:02:36;15.35;;;3.63;;
75520;SDS011;64102;48.628;9.002;2023-02-12T05:05:02;15.53;;;2.87;;
75520;SDS011;64102;48.628;9.002;2023-02-12T05:07:27;20.10;;;3.65;;
75520;SDS011;64102;48.628;9.002;2023-02-12T05:09:53;16.98;;;4.88;;
75520;SDS011;64102;48.628;9.002;2023-02-12T05:12:18;14.80;;;3.50;;
75520;SDS011;64102;48.628;9.002;2023-02-12T05:14:44;17.35;;;3.17;;
75520;SDS011;64102;48.628;9.002;2023-02-12T05:17:09;19.80;;;3.90;;
75520;SDS011;64102;48.628;9.002;2023-02-12T05:19:34;21.25;;;4.97;;
75520;SDS011;64102;48.628;9.002;2023-02-12T05:22:00;13.23;;;3.43;;
75520;SDS011;64102;48.628;9.002;2023-02-12T05:24:25;18.03;;;3.83;;
75520;SDS011;64102;48.628;9.002;2023-02-12T05:26:50;21.67;;;4.47;;
75520;SDS011;64102;48.628;9.002;2023-02-12T05:29:16;18.33;;;5.05;;
75520;SDS011;64102;48.628;9.002;2023-02-12T05:31:42;19.85;;;3.58;;
75520;SDS011;64102;48.628;9.002;2023-02-12T05:34:08;15.37;;;3.93;;
75520;SDS011;64102;48.628;9.002;2023-02-12T05:36:35;17.48;;;3.33;;
75520;SDS011;64102;48.628;9.002;2023-02-12T05:39:01;18.80;;;4.90;;
75520;SDS011;64102;48.628;9.002;2023-02-12T05:41:26;15.57;;;4.93;;
75520;SDS011;64102;48.628;9.002;2023-02-12T05:43:52;19.45;;;4.63;;
75520;SDS011;64102;48.628;9.002;2023-02-12T05:46:18;14.68;;;3.50;;
75520;SDS011;64102;48.628;9.002;2023-02-12T05:48:45;15.70;;;3.95;;
75520;SDS011;64102;48.628;9.002;2023-02-12T05:51:15;13.70;;;3.90;;
75520;SDS011;64102;48.628;9.002;2023-02-12T05:53:43;16.33;;;3.20;;
75520;SDS011;64102;48.628;9.002;2023-02-12T05:56:13;16.25;;;4.60;;
75520;SDS011;64102;48.628;9.002;2023-02-12T05:58:46;11.13;;;2.50;;
75520;SDS011;64102;48.628;9.002;2023-02-12T06:01:17;16.90;;;3.60;;
75520;SDS011;64102;48.628;9.002;2023-02-12T06:03:47;16.23;;;3.85;;
75520;SDS011;64102;48.628;9.002;2023-02-12T06:06:12;18.63;;;4.25;;
75520;SDS011;64102;48.628;9.002;2023-02-12T06:08:38;16.35;;;4.00;;
75520;SDS011;64102;48.628;9.002;2023-02-12T06:11:05;13.63;;;3.67;;
75520;SDS011;64102;48.628;9.002;2023-02-12T06:13:33;14.60;;;4.00;;
75520;SDS011;64102;48.628;9.002;2023-02-12T06:15:58;12.27;;;2.63;;
75520;SDS011;64102;48.628;9.002;2023-02-12T06:18:24;17.70;;;4.22;;
75520;SDS011;64102;48.628;9.002;2023-02-12T06:20:50;11.70;;;2.25;;
75520;SDS011;64102;48.628;9.002;2023-02-12T06:23:18;14.40;;;3.05;;
75520;SDS011;64102;48.628;9.002;2023-02-12T06:25:43;13.35;;;2.42;;
75520;SDS011;64102;48.628;9.002;2023-02-12T06:28:09;13.30;;;4.27;;
75520;SDS011;64102;48.628;9.002;2023-02-12T06:30:34;22.03;;;4.83;;
75520;SDS011;64102;48.628;9.002;2023-02-12T06:32:59;16.30;;;3.27;;
75520;SDS011;64102;48.628;9.002;2023-02-12T06:35:25;12.15;;;2.42;;
75520;SDS011;64102;48.628;9.002;2023-02-12T06:37:50;14.30;;;3.13;;
75520;SDS011;64102;48.628;9.002;2023-02-12T06:40:16;16.23;;;3.53;;
75520;SDS011;64102;48.628;9.002;2023-02-12T06:42:41;18.20;;;4.90;;
75520;SDS011;64102;48.628;9.002;2023-02-12T06:45:07;22.30;;;4.50;;
75520;SDS011;64102;48.628;9.002;2023-02-12T06:47:32;21.55;;;5.22;;
75520;SDS011;64102;48.628;9.002;2023-02-12T06:49:58;17.90;;;4.50;;
75520;SDS011;64102;48.628;9.002;2023-02-12T06:52:23;15.63;;;5.03;;
75520;SDS011;64102;48.628;9.002;2023-02-12T06:54:48;20.33;;;4.93;;
75520;SDS011;64102;48.628;9.002;2023-02-12T06:57:14;18.52;;;5.13;;
75520;SDS011;64102;48.628;9.002;2023-02-12T06:59:39;24.87;;;5.27;;
75520;SDS011;64102;48.628;9.002;2023-02-12T07:02:04;16.23;;;3.43;;
75520;SDS011;64102;48.628;9.002;2023-02-12T07:04:29;15.20;;;4.13;;
75520;SDS011;64102;48.628;9.002;2023-02-12T07:06:55;21.70;;;4.57;;
75520;SDS011;64102;48.628;9.002;2023-02-12T07:09:20;16.97;;;5.00;;
75520;SDS011;64102;48.628;9.002;2023-02-12T07:11:45;14.20;;;3.63;;
75520;SDS011;64102;48.628;9.002;2023-02-12T07:14:14;17.80;;;4.90;;
75520;SDS011;64102;48.628;9.002;2023-02-12T07:16:56;23.13;;;4.50;;
75520;SDS011;64102;48.628;9.002;2023-02-12T07:19:22;17.60;;;4.63;;
75520;SDS011;64102;48.628;9.002;2023-02-12T07:21:47;18.48;;;4.80;;
75520;SDS011;64102;48.628;9.002;2023-02-12T07:24:13;22.23;;;4.38;;
75520;SDS011;64102;48.628;9.002;2023-02-12T07:26:40;18.85;;;4.40;;
75520;SDS011;64102;48.628;9.002;2023-02-12T07:29:06;18.17;;;4.40;;
75520;SDS011;64102;48.628;9.002;2023-02-12T07:31:31;17.90;;;3.95;;
75520;SDS011;64102;48.628;9.002;2023-02-12T07:33:58;14.95;;;3.30;;
75520;SDS011;64102;48.628;9.002;2023-02-12T07:36:25;18.38;;;5.72;;
75520;SDS011;64102;48.628;9.002;2023-02-12T07:38:53;25.52;;;5.88;;
75520;SDS011;64102;48.628;9.002;2023-02-12T07:43:46;21.85;;;6.72;;
75520;SDS011;64102;48.628;9.002;2023-02-12T07:46:17;23.45;;;7.10;;
75520;SDS011;64102;48.628;9.002;2023-02-12T07:48:46;19.05;;;6.38;;
75520;SDS011;64102;48.628;9.002;2023-02-12T07:51:14;24.70;;;6.70;;
75520;SDS011;64102;48.628;9.002;2023-02-12T07:53:41;17.98;;;5.32;;
75520;SDS011;64102;48.628;9.002;2023-02-12T07:58:33;20.33;;;4.35;;
75520;SDS011;64102;48.628;9.002;2023-02-12T08:00:58;23.20;;;5.82;;
75520;SDS011;64102;48.628;9.002;2023-02-12T08:03:24;24.50;;;6.10;;
75520;SDS011;64102;48.628;9.002;2023-02-12T08:05:52;22.90;;;6.13;;
75520;SDS011;64102;48.628;9.002;2023-02-12T08:08:17;20.27;;;5.43;;
75520;SDS011;64102;48.628;9.002;2023-02-12T08:10:42;20.60;;;5.90;;
75520;SDS011;64102;48.628;9.002;2023-02-12T08:13:08;19.17;;;5.27;;
75520;SDS011;64102;48.628;9.002;2023-02-12T08:15:33;21.53;;;5.87;;
75520;SDS011;64102;48.628;9.002;2023-02-12T08:17:58;19.03;;;5.77;;
75520;SDS011;64102;48.628;9.002;2023-02-12T08:20:25;15.88;;;4.55;;
75520;SDS011;64102;48.628;9.002;2023-02-12T08:22:51;18.20;;;4.45;;
75520;SDS011;64102;48.628;9.002;2023-02-12T08:25:16;16.10;;;4.47;;
75520;SDS011;64102;48.628;9.002;2023-02-12T08:27:41;21.07;;;5.20;;
75520;SDS011;64102;48.628;9.002;2023-02-12T08:30:07;18.90;;;5.07;;
75520;SDS011;64102;48.628;9.002;2023-02-12T08:32:32;28.55;;;7.05;;
75520;SDS011;64102;48.628;9.002;2023-02-12T08:34:58;26.43;;;7.70;;
75520;SDS011;64102;48.628;9.002;2023-02-12T08:37:23;21.43;;;5.80;;
75520;SDS011;64102;48.628;9.002;2023-02-12T08:39:48;24.57;;;6.47;;
75520;SDS011;64102;48.628;9.002;2023-02-12T08:42:14;16.73;;;5.07;;
75520;SDS011;64102;48.628;9.002;2023-02-12T08:44:39;21.57;;;5.43;;
75520;SDS011;64102;48.628;9.002;2023-02-12T08:47:06;19.25;;;5.55;;
75520;SDS011;64102;48.628;9.002;2023-02-12T08:49:35;23.65;;;5.57;;
75520;SDS011;64102;48.628;9.002;2023-02-12T08:52:00;21.63;;;5.87;;
75520;SDS011;64102;48.628;9.002;2023-02-12T08:54:27;16.92;;;4.60;;
75520;SDS011;64102;48.628;9.002;2023-02-12T08:56:57;19.15;;;5.07;;
75520;SDS011;64102;48.628;9.002;2023-02-12T08:59:24;23.17;;;5.97;;
75520;SDS011;64102;48.628;9.002;2023-02-12T09:01:51;19.30;;;5.22;;
75520;SDS011;64102;48.628;9.002;2023-02-12T09:04:18;23.80;;;5.90;;
75520;SDS011;64102;48.628;9.002;2023-02-12T09:06:45;21.73;;;3.83;;
75520;SDS011;64102;48.628;9.002;2023-02-12T09:09:11;22.75;;;5.22;;
75520;SDS011;64102;48.628;9.002;2023-02-12T09:11:37;18.63;;;5.47;;
75520;SDS011;64102;48.628;9.002;2023-02-12T09:14:05;21.55;;;4.82;;
75520;SDS011;64102;48.628;9.002;2023-02-12T09:16:32;20.63;;;4.43;;
75520;SDS011;64102;48.628;9.002;2023-02-12T09:18:59;16.20;;;4.32;;
75520;SDS011;64102;48.628;9.002;2023-02-12T09:21:24;17.10;;;3.67;;
75520;SDS011;64102;48.628;9.002;2023-02-12T09:23:50;18.10;;;4.18;;
75520;SDS011;64102;48.628;9.002;2023-02-12T09:26:17;12.40;;;2.17;;
75520;SDS011;64102;48.628;9.002;2023-02-12T09:28:48;18.08;;;4.45;;
75520;SDS011;64102;48.628;9.002;2023-02-12T09:31:23;16.09;;;4.36;;
75520;SDS011;64102;48.628;9.002;2023-02-12T09:33:54;22.48;;;5.38;;
75520;SDS011;64102;48.628;9.002;2023-02-12T09:36:23;18.52;;;4.93;;
75520;SDS011;64102;48.628;9.002;2023-02-12T09:38:48;17.95;;;5.13;;
75520;SDS011;64102;48.628;9.002;2023-02-12T09:46:58;13.13;;;4.18;;
75520;SDS011;64102;48.628;9.002;2023-02-12T09:49:41;17.52;;;4.18;;
75520;SDS011;64102;48.628;9.002;2023-02-12T09:52:13;17.50;;;3.97;;
75520;SDS011;64102;48.628;9.002;2023-02-12T09:54:41;19.63;;;4.68;;
75520;SDS011;64102;48.628;9.002;2023-02-12T09:57:15;18.95;;;5.05;;
75520;SDS011;64102;48.628;9.002;2023-02-12T09:59:53;17.25;;;4.97;;
75520;SDS011;64102;48.628;9.002;2023-02-12T10:02:23;17.10;;;4.72;;
75520;SDS011;64102;48.628;9.002;2023-02-12T10:04:48;12.18;;;2.30;;
75520;SDS011;64102;48.628;9.002;2023-02-12T10:13:06;6.53;;;0.88;;
75520;SDS011;64102;48.628;9.002;2023-02-12T10:15:48;6.45;;;0.75;;
75520;SDS011;64102;48.628;9.002;2023-02-12T10:21:02;9.97;;;1.03;;
75520;SDS011;64102;48.628;9.002;2023-02-12T10:26:25;7.95;;;1.25;;
75520;SDS011;64102;48.628;9.002;2023-02-12T10:29:22;9.15;;;1.50;;
75520;SDS011;64102;48.628;9.002;2023-02-12T10:31:50;9.02;;;1.58;;
75520;SDS011;64102;48.628;9.002;2023-02-12T10:34:20;6.80;;;0.90;;
75520;SDS011;64102;48.628;9.002;2023-02-12T10:36:49;4.03;;;0.50;;
75520;SDS011;64102;48.628;9.002;2023-02-12T10:39:34;6.88;;;0.63;;
75520;SDS011;64102;48.628;9.002;2023-02-12T10:42:13;8.50;;;0.90;;
75520;SDS011;64102;48.628;9.002;2023-02-12T10:44:40;8.00;;;1.25;;
75520;SDS011;64102;48.628;9.002;2023-02-12T10:47:10;8.48;;;0.93;;
75520;SDS011;64102;48.628;9.002;2023-02-12T10:49:42;5.90;;;0.50;;
75520;SDS011;64102;48.628;9.002;2023-02-12T10:52:17;5.30;;;0.50;;
75520;SDS011;64102;48.628;9.002;2023-02-12T10:54:53;7.30;;;0.63;;
75520;SDS011;64102;48.628;9.002;2023-02-12T10:57:22;4.15;;;0.28;;
75520;SDS011;64102;48.628;9.002;2023-02-12T10:59:51;3.97;;;0.45;;
75520;SDS011;64102;48.628;9.002;2023-02-12T11:02:31;7.60;;;0.43;;
75520;SDS011;64102;48.628;9.002;2023-02-12T11:04:59;8.05;;;0.80;;
75520;SDS011;64102;48.628;9.002;2023-02-12T11:07:46;8.40;;;0.90;;
75520;SDS011;64102;48.628;9.002;2023-02-12T11:10:18;9.00;;;1.63;;
75520;SDS011;64102;48.628;9.002;2023-02-12T11:13:20;7.10;;;1.02;;
75520;SDS011;64102;48.628;9.002;2023-02-12T11:15:49;6.78;;;0.95;;
75520;SDS011;64102;48.628;9.002;2023-02-12T11:18:20;8.20;;;0.73;;
75520;SDS011;64102;48.628;9.002;2023-02-12T11:20:59;5.25;;;0.50;;
75520;SDS011;64102;48.628;9.002;2023-02-12T11:23:29;4.00;;;0.38;;
75520;SDS011;64102;48.628;9.002;2023-02-12T11:25:59;4.20;;;0.45;;
75520;SDS011;64102;48.628;9.002;2023-02-12T11:28:27;5.35;;;0.57;;
75520;SDS011;64102;48.628;9.002;2023-02-12T11:33:36;6.07;;;0.73;;
75520;SDS011;64102;48.628;9.002;2023-02-12T11:36:18;6.53;;;0.60;;
75520;SDS011;64102;48.628;9.002;2023-02-12T11:38:53;6.68;;;0.30;;
75520;SDS011;64102;48.628;9.002;2023-02-12T11:41:37;4.07;;;0.30;;
75520;SDS011;64102;48.628;9.002;2023-02-12T11:47:09;4.97;;;0.45;;
75520;SDS011;64102;48.628;9.002;2023-02-12T11:49:42;4.38;;;0.57;;
75520;SDS011;64102;48.628;9.002;2023-02-12T11:52:24;4.47;;;0.30;;
75520;SDS011;64102;48.628;9.002;2023-02-12T11:54:53;5.15;;;0.60;;
75520;SDS011;64102;48.628;9.002;2023-02-12T11:59:59;8.75;;;1.23;;
75520;SDS011;64102;48.628;9.002;2023-02-12T12:02:30;7.13;;;1.10;;
75520;SDS011;64102;48.628;9.002;2023-02-12T12:05:24;9.13;;;0.70;;
75520;SDS011;64102;48.628;9.002;2023-02-12T12:07:55;8.68;;;1.30;;
75520;SDS011;64102;48.628;9.002;2023-02-12T12:10:40;8.48;;;0.70;;
75520;SDS011;64102;48.628;9.002;2023-02-12T12:13:15;7.90;;;0.82;;
75520;SDS011;64102;48.628;9.002;2023-02-12T12:15:47;11.30;;;1.42;;
75520;SDS011;64102;48.628;9.002;2023-02-12T12:24:01;9.38;;;1.63;;
75520;SDS011;64102;48.628;9.002;2023-02-12T12:26:35;10.00;;;1.80;;
75520;SDS011;64102;48.628;9.002;2023-02-12T12:31:49;8.38;;;1.02;;
75520;SDS011;64102;48.628;9.002;2023-02-12T12:34:23;8.02;;;1.25;;
75520;SDS011;64102;48.628;9.002;2023-02-12T12:36:58;7.30;;;1.13;;
75520;SDS011;64102;48.628;9.002;2023-02-12T12:39:38;8.68;;;1.35;;
75520;SDS011;64102;48.628;9.002;2023-02-12T12:53:41;8.85;;;0.63;;
75520;SDS011;64102;48.628;9.002;2023-02-12T13:10:16;6.50;;;0.40;;
75520;SDS011;64102;48.628;9.002;2023-02-12T13:15:55;4.70;;;0.50;;
75520;SDS011;64102;48.628;9.002;2023-02-12T13:32:15;6.93;;;0.60;;
75520;SDS011;64102;48.628;9.002;2023-02-12T13:34:44;3.78;;;0.28;;
75520;SDS011;64102;48.628;9.002;2023-02-12T13:37:15;7.18;;;0.30;;
75520;SDS011;64102;48.628;9.002;2023-02-12T13:39:44;3.75;;;0.52;;
75520;SDS011;64102;48.628;9.002;2023-02-12T13:42:27;3.70;;;0.30;;
75520;SDS011;64102;48.628;9.002;2023-02-12T13:45:33;3.42;;;0.38;;
75520;SDS011;64102;48.628;9.002;2023-02-12T13:53:53;3.25;;;0.20;;
75520;SDS011;64102;48.628;9.002;2023-02-12T14:02:27;5.80;;;0.85;;
75520;SDS011;64102;48.628;9.002;2023-02-12T14:05:23;5.80;;;0.70;;
75520;SDS011;64102;48.628;9.002;2023-02-12T14:08:20;4.63;;;0.40;;
75520;SDS011;64102;48.628;9.002;2023-02-12T14:11:02;5.30;;;0.32;;
75520;SDS011;64102;48.628;9.002;2023-02-12T14:13:31;5.88;;;0.40;;
75520;SDS011;64102;48.628;9.002;2023-02-12T14:21:59;4.38;;;0.47;;
75520;SDS011;64102;48.628;9.002;2023-02-12T14:27:00;5.32;;;0.40;;
75520;SDS011;64102;48.628;9.002;2023-02-12T14:29:28;4.25;;;0.40;;
75520;SDS011;64102;48.628;9.002;2023-02-12T14:31:54;3.70;;;0.32;;
75520;SDS011;64102;48.628;9.002;2023-02-12T14:36:45;4.20;;;0.40;;
75520;SDS011;64102;48.628;9.002;2023-02-12T14:41:45;3.97;;;0.30;;
75520;SDS011;64102;48.628;9.002;2023-02-12T14:49:43;3.50;;;0.20;;
75520;SDS011;64102;48.628;9.002;2023-02-12T14:54:36;4.75;;;0.30;;
75520;SDS011;64102;48.628;9.002;2023-02-12T14:59:48;5.38;;;0.45;;
75520;SDS011;64102;48.628;9.002;2023-02-12T15:02:21;6.03;;;0.40;;
75520;SDS011;64102;48.628;9.002;2023-02-12T15:04:53;3.70;;;0.30;;
75520;SDS011;64102;48.628;9.002;2023-02-12T15:16:03;3.38;;;0.35;;
75520;SDS011;64102;48.628;9.002;2023-02-12T15:20:59;3.53;;;0.40;;
75520;SDS011;64102;48.628;9.002;2023-02-12T15:23:40;5.03;;;0.40;;
75520;SDS011;64102;48.628;9.002;2023-02-12T15:26:26;1.38;;;0.10;;
75520;SDS011;64102;48.628;9.002;2023-02-12T15:28:53;3.92;;;0.32;;
75520;SDS011;64102;48.628;9.002;2023-02-12T15:31:20;3.67;;;0.10;;
75520;SDS011;64102;48.628;9.002;2023-02-12T15:33:50;6.07;;;0.57;;
75520;SDS011;64102;48.628;9.002;2023-02-12T15:36:20;3.15;;;0.20;;
75520;SDS011;64102;48.628;9.002;2023-02-12T15:38:52;3.58;;;0.30;;
75520;SDS011;64102;48.628;9.002;2023-02-12T15:43:52;3.63;;;0.30;;
75520;SDS011;64102;48.628;9.002;2023-02-12T15:46:18;2.80;;;0.20;;
75520;SDS011;64102;48.628;9.002;2023-02-12T15:48:44;3.25;;;0.17;;
75520;SDS011;64102;48.628;9.002;2023-02-12T15:53:38;4.63;;;0.22;;
75520;SDS011;64102;48.628;9.002;2023-02-12T15:56:04;4.32;;;0.30;;
75520;SDS011;64102;48.628;9.002;2023-02-12T16:01:26;3.60;;;0.38;;
75520;SDS011;64102;48.628;9.002;2023-02-12T16:03:58;3.95;;;0.20;;
75520;SDS011;64102;48.628;9.002;2023-02-12T16:06:26;4.82;;;0.30;;
75520;SDS011;64102;48.628;9.002;2023-02-12T16:08:58;3.80;;;0.43;;
75520;SDS011;64102;48.628;9.002;2023-02-12T16:11:27;3.70;;;0.20;;
75520;SDS011;64102;48.628;9.002;2023-02-12T16:13:55;2.08;;;0.22;;
75520;SDS011;64102;48.628;9.002;2023-02-12T16:16:24;5.55;;;0.50;;
75520;SDS011;64102;48.628;9.002;2023-02-12T16:21:30;4.05;;;0.10;;
75520;SDS011;64102;48.628;9.002;2023-02-12T16:23:59;3.97;;;0.20;;
75520;SDS011;64102;48.628;9.002;2023-02-12T16:26:25;4.63;;;0.40;;
75520;SDS011;64102;48.628;9.002;2023-02-12T16:28:52;4.97;;;0.28;;
75520;SDS011;64102;48.628;9.002;2023-02-12T16:31:20;4.63;;;0.40;;
75520;SDS011;64102;48.628;9.002;2023-02-12T16:33:48;4.60;;;0.40;;
75520;SDS011;64102;48.628;9.002;2023-02-12T16:38:51;3.83;;;0.50;;
75520;SDS011;64102;48.628;9.002;2023-02-12T16:43:44;3.72;;;0.25;;
75520;SDS011;64102;48.628;9.002;2023-02-12T16:46:12;4.57;;;0.65;;
75520;SDS011;64102;48.628;9.002;2023-02-12T16:48:42;9.07;;;0.90;;
75520;SDS011;64102;48.628;9.002;2023-02-12T16:51:27;9.25;;;1.02;;
75520;SDS011;64102;48.628;9.002;2023-02-12T16:53:57;5.15;;;0.52;;
75520;SDS011;64102;48.628;9.002;2023-02-12T16:56:26;2.83;;;0.22;;
75520;SDS011;64102;48.628;9.002;2023-02-12T16:58:55;2.63;;;0.20;;
75520;SDS011;64102;48.628;9.002;2023-02-12T17:03:52;3.75;;;0.30;;
75520;SDS011;64102;48.628;9.002;2023-02-12T17:06:20;3.80;;;0.25;;
75520;SDS011;64102;48.628;9.002;2023-02-12T17:08:47;3.70;;;0.55;;
75520;SDS011;64102;48.628;9.002;2023-02-12T17:11:13;4.28;;;0.32;;
75520;SDS011;64102;48.628;9.002;2023-02-12T17:13:41;3.30;;;0.25;;
75520;SDS011;64102;48.628;9.002;2023-02-12T17:16:11;3.72;;;0.20;;
75520;SDS011;64102;48.628;9.002;2023-02-12T17:18:36;2.78;;;0.20;;
75520;SDS011;64102;48.628;9.002;2023-02-12T17:21:03;3.17;;;0.20;;
75520;SDS011;64102;48.628;9.002;2023-02-12T17:23:32;2.95;;;0.30;;
75520;SDS011;64102;48.628;9.002;2023-02-12T17:25:58;3.75;;;0.40;;
75520;SDS011;64102;48.628;9.002;2023-02-12T17:28:24;5.60;;;0.57;;
75520;SDS011;64102;48.628;9.002;2023-02-12T17:30:49;4.90;;;0.63;;
75520;SDS011;64102;48.628;9.002;2023-02-12T17:33:18;4.20;;;0.43;;
75520;SDS011;64102;48.628;9.002;2023-02-12T17:35:44;3.30;;;0.50;;
75520;SDS011;64102;48.628;9.002;2023-02-12T17:38:09;5.30;;;0.40;;
75520;SDS011;64102;48.628;9.002;2023-02-12T17:40:35;3.70;;;0.38;;
75520;SDS011;64102;48.628;9.002;2023-02-12T17:43:02;2.70;;;0.20;;
75520;SDS011;64102;48.628;9.002;2023-02-12T17:45:31;2.17;;;0.13;;
75520;SDS011;64102;48.628;9.002;2023-02-12T17:47:56;6.50;;;0.70;;
75520;SDS011;64102;48.628;9.002;2023-02-12T17:50:22;6.05;;;0.28;;
75520;SDS011;64102;48.628;9.002;2023-02-12T17:52:48;3.40;;;0.30;;
75520;SDS011;64102;48.628;9.002;2023-02-12T17:55:13;2.78;;;0.25;;
75520;SDS011;64102;48.628;9.002;2023-02-12T17:57:41;3.00;;;0.22;;
75520;SDS011;64102;48.628;9.002;2023-02-12T18:00:07;5.05;;;0.55;;